createdAt,value
2022-08-14T00:02:27.161Z,100461.47
2022-08-14T00:04:54.967Z,100453.97
2022-08-14T00:07:22.591Z,100447.31
2022-08-14T00:10:01.976Z,100449.03
2022-08-14T00:12:41.022Z,100446.22
2022-08-14T00:15:17.193Z,100439.22
2022-08-14T00:17:47.323Z,100438.38
2022-08-14T00:20:24.101Z,100426.97
2022-08-14T00:23:08.312Z,100439.34
2022-08-14T00:25:42.321Z,100447.78
2022-08-14T00:28:15.091Z,100445.03
2022-08-14T00:30:43.601Z,100438.31
2022-08-14T00:33:16.496Z,100444.94
2022-08-14T00:36:35.753Z,100427.69
2022-08-14T00:38:34.787Z,100424.72
2022-08-14T00:41:07.131Z,100438.06
2022-08-14T00:43:43.104Z,100426.66
2022-08-14T00:46:32.677Z,100437.63
2022-08-14T00:48:59.187Z,100439.25
2022-08-14T00:51:34.446Z,100430.78
2022-08-14T00:54:11.083Z,100432.59
2022-08-14T00:56:55.336Z,100417.19
2022-08-14T00:59:28.684Z,100416.94
2022-08-14T01:01:59.630Z,100423.69
2022-08-14T01:04:38.169Z,100419.50
2022-08-14T01:07:20.922Z,100409.22
2022-08-14T01:09:56.926Z,100420.19
2022-08-14T01:12:29.822Z,100421.50
2022-08-14T01:15:08.672Z,100417.72
2022-08-14T01:17:55.609Z,100414.31
2022-08-14T01:20:41.706Z,100425.63
2022-08-14T01:23:16.408Z,100412.47
2022-08-14T01:25:51.490Z,100409.53
2022-08-14T01:28:46.938Z,100418.97
2022-08-14T01:31:15.777Z,100417.44
2022-08-14T01:34:00.058Z,100398.25
2022-08-14T01:36:39.444Z,100405.16
2022-08-14T01:39:12.560Z,100404.84
2022-08-14T01:41:43.372Z,100401.03
2022-08-14T01:44:32.370Z,100409.91
2022-08-14T01:47:11.739Z,100395.94
2022-08-14T01:49:46.024Z,100412.44
2022-08-14T01:52:34.377Z,100410.16
2022-08-14T01:55:15.814Z,100407.81
2022-08-14T01:58:01.908Z,100404.84
2022-08-14T02:00:36.149Z,100400.66
2022-08-14T02:03:06.782Z,100390.13
2022-08-14T02:05:38.297Z,100400.53
2022-08-14T02:08:09.359Z,100394.13
2022-08-14T02:10:46.643Z,100396.84
2022-08-14T02:13:16.641Z,100405.91
2022-08-14T02:15:45.745Z,100381.88
2022-08-14T02:18:16.445Z,100392.84
2022-08-14T02:20:47.667Z,100386.75
2022-08-14T02:23:15.695Z,100401.66
2022-08-14T02:25:54.657Z,100391.09
2022-08-14T02:28:57.565Z,100397.00
2022-08-14T02:31:14.961Z,100396.41
2022-08-14T02:33:43.119Z,100402.94
2022-08-14T02:36:46.001Z,100391.41
2022-08-14T02:38:59.179Z,100383.50
2022-08-14T02:41:28.811Z,100389.94
2022-08-14T02:44:00.684Z,100391.22
2022-08-14T02:46:32.481Z,100369.78
2022-08-14T02:49:06.353Z,100375.88
2022-08-14T02:51:36.607Z,100382.22
2022-08-14T02:54:09.846Z,100389.84
2022-08-14T02:57:15.251Z,100372.22
2022-08-14T02:59:33.885Z,100377.94
2022-08-14T03:02:03.167Z,100373.50
2022-08-14T03:04:31.162Z,100382.06
2022-08-14T03:07:07.851Z,100362.50
2022-08-14T03:10:25.142Z,100362.97
2022-08-14T03:12:31.720Z,100378.69
2022-08-14T03:15:16.280Z,100376.50
2022-08-14T03:17:57.008Z,100376.25
2022-08-14T03:20:30.452Z,100362.16
2022-08-14T03:23:02.995Z,100376.13
2022-08-14T03:25:34.300Z,100370.69
2022-08-14T03:28:07.362Z,100375.69
2022-08-14T03:30:39.255Z,100372.00
2022-08-14T03:33:12.264Z,100360.66
2022-08-14T03:35:59.774Z,100377.25
2022-08-14T03:39:13.949Z,100367.31
2022-08-14T03:41:25.794Z,100371.69
2022-08-14T03:45:25.706Z,100359.78
2022-08-14T03:46:54.371Z,100375.56
2022-08-14T03:49:28.486Z,100374.38
2022-08-14T03:52:07.643Z,100360.78
2022-08-14T03:54:46.372Z,100364.34
2022-08-14T03:57:22.852Z,100357.63
2022-08-14T03:59:51.190Z,100369.09
2022-08-14T04:02:32.562Z,100375.47
2022-08-14T04:05:12.159Z,100375.28
2022-08-14T04:07:41.494Z,100371.25
2022-08-14T04:10:32.039Z,100368.72
2022-08-14T04:13:03.464Z,100353.31
2022-08-14T04:15:52.829Z,100366.69
2022-08-14T04:18:22.374Z,100356.88
2022-08-14T04:20:54.555Z,100363.00
2022-08-14T04:23:29.682Z,100346.19
2022-08-14T04:26:08.204Z,100351.72
2022-08-14T04:29:07.409Z,100359.31
2022-08-14T04:32:59.927Z,100334.84
2022-08-14T04:34:20.635Z,100359.13
2022-08-14T04:37:21.954Z,100358.09
2022-08-14T04:40:15.147Z,100364.22
2022-08-14T04:43:01.579Z,100356.06
2022-08-14T04:45:40.671Z,100360.50
2022-08-14T04:48:13.090Z,100352.31
2022-08-14T04:50:45.514Z,100361.38
2022-08-14T04:53:26.449Z,100354.41
2022-08-14T04:56:03.542Z,100362.13
2022-08-14T04:58:35.436Z,100357.06
2022-08-14T05:01:12.962Z,100348.53
2022-08-14T05:03:47.468Z,100344.53
2022-08-14T05:06:37.248Z,100351.63
2022-08-14T05:09:02.088Z,100347.47
2022-08-14T05:11:34.624Z,100338.84
2022-08-14T05:14:34.305Z,100352.88
2022-08-14T05:16:53.129Z,100355.25
2022-08-14T05:19:27.211Z,100365.47
2022-08-14T05:22:16.118Z,100372.47
2022-08-14T05:24:50.511Z,100374.94
2022-08-14T05:27:22.982Z,100368.25
2022-08-14T05:29:55.101Z,100361.59
2022-08-14T05:32:27.374Z,100358.47
2022-08-14T05:34:58.453Z,100363.28
2022-08-14T05:37:29.565Z,100358.47
2022-08-14T05:39:58.421Z,100374.84
2022-08-14T05:42:29.490Z,100376.91
2022-08-14T05:45:00.233Z,100372.47
2022-08-14T05:47:28.700Z,100372.56
2022-08-14T05:50:02.435Z,100384.28
2022-08-14T05:52:39.152Z,100373.41
2022-08-14T05:55:09.550Z,100375.31
2022-08-14T05:57:53.703Z,100377.88
2022-08-14T06:00:24.990Z,100365.38
2022-08-14T06:02:57.742Z,100363.53
2022-08-14T06:05:28.543Z,100351.41
2022-08-14T06:07:58.638Z,100365.66
2022-08-14T06:10:28.771Z,100358.84
2022-08-14T06:13:02.266Z,100355.25
2022-08-14T06:15:30.532Z,100357.09
2022-08-14T06:17:59.865Z,100367.91
2022-08-14T06:20:28.650Z,100366.06
2022-08-14T06:22:57.951Z,100350.34
2022-08-14T06:25:26.925Z,100359.09
2022-08-14T06:27:55.442Z,100366.00
2022-08-14T06:30:30.066Z,100365.44
2022-08-14T06:33:09.196Z,100372.84
2022-08-14T06:35:36.569Z,100371.09
2022-08-14T06:38:04.697Z,100369.47
2022-08-14T06:40:42.819Z,100375.66
2022-08-14T06:43:11.763Z,100367.81
2022-08-14T06:45:44.187Z,100379.69
2022-08-14T06:48:24.053Z,100357.16
2022-08-14T06:50:53.960Z,100367.44
2022-08-14T06:53:22.328Z,100374.34
2022-08-14T06:56:00.699Z,100349.69
2022-08-14T06:58:30.901Z,100362.13
2022-08-14T07:01:23.419Z,100349.75
2022-08-14T07:04:12.809Z,100364.03
2022-08-14T07:06:50.081Z,100367.06
2022-08-14T07:09:22.683Z,100358.97
2022-08-14T07:11:52.016Z,100356.69
2022-08-14T07:14:19.251Z,100358.66
2022-08-14T07:16:46.448Z,100359.50
2022-08-14T07:19:17.712Z,100354.31
2022-08-14T07:21:48.357Z,100346.00
2022-08-14T07:24:26.189Z,100328.97
2022-08-14T07:26:58.889Z,100340.63
2022-08-14T07:29:29.027Z,100334.34
2022-08-14T07:31:56.641Z,100342.66
2022-08-14T07:34:36.067Z,100335.91
2022-08-14T07:37:05.853Z,100344.72
2022-08-14T07:39:34.505Z,100338.91
2022-08-14T07:42:02.531Z,100340.09
2022-08-14T07:44:35.982Z,100329.44
2022-08-14T07:47:16.673Z,100334.44
2022-08-14T07:49:57.559Z,100341.69
2022-08-14T07:52:30.475Z,100339.81
2022-08-14T07:54:58.387Z,100343.59
2022-08-14T07:57:27.559Z,100334.38
2022-08-14T07:59:54.999Z,100324.38
2022-08-14T08:02:22.976Z,100327.63
2022-08-14T08:04:59.206Z,100325.97
2022-08-14T08:07:30.662Z,100336.22
2022-08-14T08:10:31.383Z,100329.22
2022-08-14T08:13:24.490Z,100334.22
2022-08-14T08:15:57.476Z,100343.69
2022-08-14T08:18:28.890Z,100349.66
2022-08-14T08:20:59.537Z,100331.75
2022-08-14T08:23:34.411Z,100327.13
2022-08-14T08:26:08.200Z,100333.38
2022-08-14T08:28:35.800Z,100340.31
2022-08-14T08:31:06.671Z,100317.91
2022-08-14T08:33:37.173Z,100311.63
2022-08-14T08:36:12.988Z,100324.00
2022-08-14T08:39:16.877Z,100315.72
2022-08-14T08:41:50.524Z,100330.50
2022-08-14T08:44:32.222Z,100330.03
2022-08-14T08:47:06.724Z,100319.25
2022-08-14T08:49:48.302Z,100294.19
2022-08-14T08:52:25.385Z,100313.09
2022-08-14T08:54:56.405Z,100309.69
2022-08-14T08:57:24.039Z,100296.16
2022-08-14T08:59:55.367Z,100303.69
2022-08-14T09:02:27.606Z,100305.00
2022-08-14T09:05:02.475Z,100295.13
2022-08-14T09:07:31.188Z,100302.25
2022-08-14T09:10:00.351Z,100299.34
2022-08-14T09:12:32.310Z,100300.25
2022-08-14T09:15:11.499Z,100287.50
2022-08-14T09:17:42.167Z,100288.41
2022-08-14T09:20:12.752Z,100292.88
2022-08-14T09:22:42.414Z,100275.38
2022-08-14T09:25:15.091Z,100278.66
2022-08-14T09:27:42.780Z,100277.31
2022-08-14T09:30:31.486Z,100275.41
2022-08-14T09:33:22.743Z,100260.94
2022-08-14T09:36:03.311Z,100254.97
2022-08-14T09:39:21.138Z,100260.59
2022-08-14T09:42:33.244Z,100255.72
2022-08-14T09:45:08.512Z,100256.69
2022-08-14T09:47:46.044Z,100236.72
2022-08-14T09:50:19.400Z,100252.81
2022-08-14T09:52:54.881Z,100253.03
2022-08-14T09:55:26.462Z,100246.59
2022-08-14T09:58:19.250Z,100245.41
2022-08-14T10:00:50.187Z,100255.06
2022-08-14T10:03:30.375Z,100235.34
2022-08-14T10:06:07.246Z,100228.97
2022-08-14T10:08:45.074Z,100251.59
2022-08-14T10:11:24.083Z,100227.47
2022-08-14T10:13:56.018Z,100231.69
2022-08-14T10:16:33.737Z,100225.66
2022-08-14T10:19:04.863Z,100208.03
2022-08-14T10:21:38.604Z,100222.16
2022-08-14T10:24:09.040Z,100209.31
2022-08-14T10:26:37.185Z,100213.09
2022-08-14T10:29:19.500Z,100203.63
2022-08-14T10:32:00.868Z,100208.28
2022-08-14T10:34:36.811Z,100206.63
2022-08-14T10:37:14.069Z,100196.47
2022-08-14T10:39:51.418Z,100196.47
2022-08-14T10:42:41.736Z,100190.16
2022-08-14T10:45:42.144Z,100198.38
2022-08-14T10:48:23.661Z,100198.22
2022-08-14T10:51:08.449Z,100199.72
2022-08-14T10:53:39.287Z,100199.22
2022-08-14T10:56:22.113Z,100184.69
2022-08-14T10:59:08.311Z,100201.66
2022-08-14T11:02:00.374Z,100197.06
2022-08-14T11:04:30.296Z,100191.38
2022-08-14T11:06:58.539Z,100189.03
2022-08-14T11:09:31.474Z,100189.63
2022-08-14T11:12:40.135Z,100186.19
2022-08-14T11:14:59.321Z,100193.84
2022-08-14T11:17:31.868Z,100173.63
2022-08-14T11:20:01.755Z,100180.66
2022-08-14T11:22:56.705Z,100173.72
2022-08-14T11:25:20.514Z,100180.22
2022-08-14T11:27:50.580Z,100164.38
2022-08-14T11:30:50.486Z,100179.19
2022-08-14T11:33:09.075Z,100150.41
2022-08-14T11:35:47.364Z,100169.41
2022-08-14T11:38:17.122Z,100152.28
2022-08-14T11:40:46.753Z,100161.84
2022-08-14T11:43:15.397Z,100153.97
2022-08-14T11:45:48.346Z,100160.59
2022-08-14T11:49:01.842Z,100156.28
2022-08-14T11:51:14.648Z,100165.75
2022-08-14T11:53:51.487Z,100154.72
2022-08-14T11:56:18.956Z,100147.81
2022-08-14T11:58:54.503Z,100142.91
2022-08-14T12:01:31.282Z,100144.34
2022-08-14T12:04:32.291Z,100147.81
2022-08-14T12:07:01.712Z,100136.09
2022-08-14T12:09:29.941Z,100154.38
2022-08-14T12:11:57.340Z,100145.78
2022-08-14T12:14:30.626Z,100125.59
2022-08-14T12:17:11.946Z,100138.13
2022-08-14T12:19:51.113Z,100138.13
2022-08-14T12:22:44.058Z,100150.56
2022-08-14T12:25:20.218Z,100134.19
2022-08-14T12:27:53.498Z,100131.44
2022-08-14T12:30:42.817Z,100117.47
2022-08-14T12:33:30.544Z,100123.41
2022-08-14T12:36:05.482Z,100133.97
2022-08-14T12:38:45.763Z,100123.44
2022-08-14T12:41:20.982Z,100126.28
2022-08-14T12:43:56.624Z,100104.28
2022-08-14T12:46:37.881Z,100116.75
2022-08-14T12:49:18.939Z,100119.84
2022-08-14T12:51:57.822Z,100115.06
2022-08-14T12:54:28.572Z,100111.50
2022-08-14T12:57:05.732Z,100103.13
2022-08-14T12:59:37.215Z,100089.28
2022-08-14T13:02:36.802Z,100104.59
2022-08-14T13:05:04.608Z,100092.28
2022-08-14T13:07:38.698Z,100097.66
2022-08-14T13:10:51.408Z,100076.88
2022-08-14T13:13:13.537Z,100068.97
2022-08-14T13:15:45.772Z,100071.38
2022-08-14T13:18:17.125Z,100061.31
2022-08-14T13:20:49.462Z,100064.44
2022-08-14T13:23:30.619Z,100045.44
2022-08-14T13:26:00.946Z,100056.19
2022-08-14T13:28:32.629Z,100055.69
2022-08-14T13:31:11.264Z,100063.56
2022-08-14T13:33:41.078Z,100048.69
2022-08-14T13:36:11.046Z,100041.63
2022-08-14T13:38:53.744Z,100027.66
2022-08-14T13:41:28.004Z,100033.63
2022-08-14T13:44:00.717Z,100038.56
2022-08-14T13:46:29.180Z,100024.31
2022-08-14T13:48:59.661Z,100004.75
2022-08-14T13:51:32.993Z,100027.66
2022-08-14T13:54:10.486Z,100022.03
2022-08-14T13:56:40.566Z,99999.47
2022-08-14T13:59:08.810Z,100018.13
2022-08-14T14:01:43.942Z,100012.09
2022-08-14T14:04:19.229Z,100013.41
2022-08-14T14:06:50.978Z,100003.03
2022-08-14T14:09:32.439Z,100004.31
2022-08-14T14:12:37.510Z,99991.16
2022-08-14T14:14:56.592Z,99980.28
2022-08-14T14:17:25.309Z,99978.78
2022-08-14T14:19:56.438Z,99991.41
2022-08-14T14:22:34.307Z,99989.72
2022-08-14T14:25:19.363Z,99963.91
2022-08-14T14:27:53.283Z,99972.22
2022-08-14T14:30:51.916Z,99988.34
2022-08-14T14:33:44.152Z,99983.31
2022-08-14T14:36:01.772Z,99959.59
2022-08-14T14:38:33.663Z,99958.06
2022-08-14T14:41:03.719Z,99962.44
2022-08-14T14:43:39.024Z,99963.78
2022-08-14T14:46:09.266Z,99956.34
2022-08-14T14:48:46.765Z,99949.22
2022-08-14T14:51:22.240Z,99945.56
2022-08-14T14:53:49.918Z,99959.31
2022-08-14T14:56:50.997Z,99961.28
2022-08-14T14:59:06.207Z,99953.66
2022-08-14T15:01:36.091Z,99940.56
2022-08-14T15:04:07.939Z,99957.97
2022-08-14T15:06:48.056Z,99949.47
2022-08-14T15:09:17.877Z,99943.72
2022-08-14T15:11:47.040Z,99947.59
2022-08-14T15:14:55.988Z,99949.66
2022-08-14T15:17:02.809Z,99943.31
2022-08-14T15:19:32.061Z,99950.19
2022-08-14T15:21:59.494Z,99947.34
2022-08-14T15:24:27.231Z,99953.09
2022-08-14T15:26:58.681Z,99932.66
2022-08-14T15:29:27.667Z,99959.09
2022-08-14T15:31:55.085Z,99960.34
2022-08-14T15:34:43.571Z,99967.50
2022-08-14T15:37:14.858Z,99960.22
2022-08-14T15:39:44.553Z,99972.53
2022-08-14T15:42:16.198Z,99960.16
2022-08-14T15:44:58.498Z,99970.88
2022-08-14T15:47:31.771Z,99974.69
2022-08-14T15:50:01.550Z,99983.63
2022-08-14T15:52:34.865Z,99981.78
2022-08-14T15:55:06.762Z,99972.63
2022-08-14T15:57:36.153Z,99964.03
2022-08-14T16:00:43.255Z,99956.31
2022-08-14T16:03:14.200Z,99940.28
2022-08-14T16:05:46.011Z,99934.53
2022-08-14T16:08:26.955Z,99937.41
2022-08-14T16:10:59.932Z,99943.91
2022-08-14T16:13:43.055Z,99949.94
2022-08-14T16:16:34.802Z,99938.16
2022-08-14T16:19:11.117Z,99938.41
2022-08-14T16:21:40.884Z,99947.41
2022-08-14T16:24:33.431Z,99933.47
2022-08-14T16:27:03.558Z,99927.41
2022-08-14T16:29:40.060Z,99934.88
2022-08-14T16:32:33.203Z,99930.63
2022-08-14T16:34:58.319Z,99938.75
2022-08-14T16:37:30.830Z,99936.91
2022-08-14T16:40:03.542Z,99927.09
2022-08-14T16:42:38.710Z,99937.56
2022-08-14T16:45:25.904Z,99909.47
2022-08-14T16:47:53.502Z,99913.28
2022-08-14T16:50:40.429Z,99902.06
2022-08-14T16:53:09.681Z,99943.47
2022-08-14T16:55:53.149Z,99991.47
2022-08-14T16:58:29.844Z,100005.47
2022-08-14T17:01:22.858Z,99997.03
2022-08-14T17:03:58.202Z,100008.22
2022-08-14T17:06:38.500Z,100008.31
2022-08-14T17:09:27.734Z,99992.06
2022-08-14T17:11:59.995Z,99999.31
2022-08-14T17:15:10.065Z,99990.88
2022-08-14T17:17:40.914Z,99993.53
2022-08-14T17:20:53.729Z,99968.91
2022-08-14T17:23:00.062Z,99994.31
2022-08-14T17:25:31.332Z,99979.38
2022-08-14T17:28:50.226Z,99983.22
2022-08-14T17:31:04.441Z,99985.28
2022-08-14T17:33:40.711Z,99961.56
2022-08-14T17:36:31.287Z,99962.44
2022-08-14T17:39:20.518Z,99970.53
2022-08-14T17:42:01.695Z,99975.03
2022-08-14T17:44:45.386Z,99979.38
2022-08-14T17:47:18.613Z,99963.28
2022-08-14T17:49:52.112Z,99967.16
2022-08-14T17:52:36.303Z,99971.78
2022-08-14T17:56:01.815Z,99965.19
2022-08-14T17:58:20.971Z,99943.63
2022-08-14T18:00:52.341Z,99953.00
2022-08-14T18:03:50.020Z,99947.22
2022-08-14T18:06:39.592Z,99952.25
2022-08-14T18:08:58.950Z,99956.25
2022-08-14T18:11:27.324Z,99932.47
2022-08-14T18:14:31.521Z,99957.84
2022-08-14T18:17:01.587Z,99948.81
2022-08-14T18:19:31.675Z,99931.91
2022-08-14T18:22:05.749Z,99946.19
2022-08-14T18:24:58.558Z,99951.91
2022-08-14T18:27:57.896Z,99949.03
2022-08-14T18:30:40.040Z,99951.59
2022-08-14T18:33:28.446Z,99936.03
2022-08-14T18:36:48.313Z,99934.00
2022-08-14T18:40:01.831Z,99941.28
2022-08-14T18:42:37.401Z,99933.78
2022-08-14T18:45:41.321Z,99930.56
2022-08-14T18:48:33.549Z,99926.84
2022-08-14T18:51:45.208Z,99927.22
2022-08-14T18:54:40.898Z,99919.47
2022-08-14T18:57:23.830Z,99912.94
2022-08-14T19:00:05.177Z,99917.19
2022-08-14T19:02:47.145Z,99906.53
2022-08-14T19:06:16.896Z,99907.63
2022-08-14T19:09:56.242Z,99908.44
2022-08-14T19:12:53.051Z,99912.00
2022-08-14T19:15:33.447Z,99906.97
2022-08-14T19:18:38.412Z,99906.16
2022-08-14T19:21:35.107Z,99896.94
2022-08-14T19:24:50.378Z,99897.59
2022-08-14T19:27:47.675Z,99912.56
2022-08-14T19:30:25.752Z,99927.47
2022-08-14T19:33:36.312Z,99934.88
2022-08-14T19:36:29.090Z,99935.50
2022-08-14T19:39:20.350Z,99931.94
2022-08-14T19:41:59.487Z,99922.72
2022-08-14T19:44:40.405Z,99936.56
2022-08-14T19:47:44.763Z,99938.47
2022-08-14T19:50:44.312Z,99944.34
2022-08-14T19:53:20.088Z,99942.66
2022-08-14T19:56:05.295Z,99946.44
2022-08-14T19:58:55.116Z,99941.44
2022-08-14T20:01:57.120Z,99935.78
2022-08-14T20:04:57.334Z,99920.94
2022-08-14T20:08:00.688Z,99913.19
2022-08-14T20:11:06.335Z,99915.91
2022-08-14T20:13:49.469Z,99932.28
2022-08-14T20:16:44.084Z,99918.38
2022-08-14T20:19:43.037Z,99915.25
2022-08-14T20:22:36.886Z,99911.28
2022-08-14T20:25:20.460Z,99929.13
2022-08-14T20:28:30.384Z,99920.81
2022-08-14T20:31:25.488Z,99928.13
2022-08-14T20:34:25.132Z,99930.22
2022-08-14T20:37:22.308Z,99924.75
2022-08-14T20:39:59.426Z,99932.34
2022-08-14T20:42:56.002Z,99923.97
2022-08-14T20:45:50.146Z,99941.22
2022-08-14T20:48:51.244Z,99929.91
2022-08-14T20:51:36.761Z,99922.34
2022-08-14T20:54:18.296Z,99914.63
2022-08-14T20:56:49.110Z,99909.41
2022-08-14T20:59:24.096Z,99933.34
2022-08-14T21:02:00.018Z,99922.03
2022-08-14T21:04:34.982Z,99926.59
2022-08-14T21:07:36.266Z,99926.38
2022-08-14T21:10:44.391Z,99931.22
2022-08-14T21:16:32.918Z,99925.09
2022-08-14T21:22:02.861Z,99920.75
2022-08-14T21:24:47.069Z,99914.06
2022-08-14T21:27:37.259Z,99922.91
2022-08-14T21:30:51.498Z,99909.50
2022-08-14T21:33:25.352Z,99915.38
2022-08-14T21:36:08.361Z,99914.84
2022-08-14T21:38:49.352Z,99900.16
2022-08-14T21:41:41.290Z,99905.88
2022-08-14T21:44:23.340Z,99896.81
2022-08-14T21:47:18.370Z,99909.69
2022-08-14T21:50:47.466Z,99909.16
2022-08-14T21:53:07.604Z,99908.72
2022-08-14T21:55:49.373Z,99894.19
2022-08-14T21:58:54.693Z,99904.06
2022-08-14T22:01:21.716Z,99907.75
2022-08-14T22:03:55.120Z,99893.09
2022-08-14T22:06:28.664Z,99904.97
2022-08-14T22:08:58.343Z,99891.19
2022-08-14T22:11:27.439Z,99891.44
2022-08-14T22:13:56.440Z,99864.44
2022-08-14T22:17:02.107Z,99892.69
2022-08-14T22:19:20.742Z,99884.94
2022-08-14T22:21:51.005Z,99897.63
2022-08-14T22:24:38.215Z,99891.13
2022-08-14T22:27:10.338Z,99883.38
2022-08-14T22:29:39.132Z,99884.03
2022-08-14T22:32:07.474Z,99863.34
2022-08-14T22:34:36.158Z,99877.16
2022-08-14T22:37:08.546Z,99872.94
2022-08-14T22:40:17.839Z,99849.03
2022-08-14T22:42:25.315Z,99860.78
2022-08-14T22:44:56.475Z,99855.78
2022-08-14T22:47:24.815Z,99849.06
2022-08-14T22:50:32.508Z,99842.53
2022-08-14T22:52:41.281Z,99849.91
2022-08-14T22:55:17.594Z,99858.47
2022-08-14T22:57:45.074Z,99836.53
2022-08-14T23:00:25.590Z,99849.94
2022-08-14T23:03:01.492Z,99851.84
2022-08-14T23:05:34.183Z,99851.25
2022-08-14T23:09:00.091Z,99844.75
2022-08-14T23:10:59.769Z,99843.59
2022-08-14T23:13:27.468Z,99837.88
2022-08-14T23:16:01.659Z,99828.97
2022-08-14T23:18:29.414Z,99833.63
2022-08-14T23:20:57.598Z,99827.75
2022-08-14T23:23:24.947Z,99823.53
2022-08-14T23:25:58.575Z,99815.91
2022-08-14T23:28:34.282Z,99832.75
2022-08-14T23:31:34.224Z,99839.50
2022-08-14T23:34:06.876Z,99828.38
2022-08-14T23:36:53.252Z,99830.22
2022-08-14T23:39:33.179Z,99820.81
2022-08-14T23:42:07.624Z,99830.31
2022-08-14T23:44:37.867Z,99803.47
2022-08-14T23:47:10.870Z,99826.47
2022-08-14T23:50:01.013Z,99825.03
2022-08-14T23:53:04.077Z,99827.28
2022-08-14T23:55:16.344Z,99815.16
2022-08-14T23:57:57.751Z,99811.97
